createdAt,value
2023-03-02T00:02:13.105Z,100902.06
2023-03-02T00:05:16.228Z,100901.97
2023-03-02T00:08:19.527Z,100897.56
2023-03-02T00:11:22.970Z,100887.94
2023-03-02T00:14:25.708Z,100898.31
2023-03-02T00:17:29.077Z,100896.44
2023-03-02T00:20:32.105Z,100895.47
2023-03-02T00:23:34.851Z,100893.75
2023-03-02T00:26:37.772Z,100872.91
2023-03-02T00:29:40.709Z,100881.41
2023-03-02T00:32:44.348Z,100880.53
2023-03-02T00:35:47.655Z,100875.22
2023-03-02T00:38:52.251Z,100874.69
2023-03-02T00:41:55.184Z,100870.44
2023-03-02T00:44:59.699Z,100866.50
2023-03-02T00:48:02.631Z,100859.88
2023-03-02T00:51:06.055Z,100862.44
2023-03-02T00:54:09.253Z,100863.09
2023-03-02T00:57:12.798Z,100858.19
2023-03-02T01:00:17.344Z,100855.75
2023-03-02T01:03:20.563Z,100863.41
2023-03-02T01:06:23.645Z,100857.97
2023-03-02T01:09:26.554Z,100845.06
2023-03-02T01:12:29.355Z,100835.97
2023-03-02T01:15:32.958Z,100834.00
2023-03-02T01:18:38.700Z,100830.25
2023-03-02T01:21:41.837Z,100826.75
2023-03-02T01:24:44.624Z,100816.00
2023-03-02T01:27:47.543Z,100808.69
2023-03-02T01:30:50.917Z,100810.31
2023-03-02T01:33:54.812Z,100799.87
2023-03-02T01:36:58.280Z,100796.97
2023-03-02T01:40:06.965Z,100794.72
2023-03-02T01:43:15.686Z,100788.75
2023-03-02T01:46:22.325Z,100785.94
2023-03-02T01:49:27.108Z,100783.28
2023-03-02T01:52:33.505Z,100788.56
2023-03-02T01:55:39.786Z,100779.69
2023-03-02T01:58:42.124Z,100772.66
2023-03-02T02:01:50.568Z,100767.78
2023-03-02T02:04:56.741Z,100765.78
2023-03-02T02:07:59.840Z,100766.34
2023-03-02T02:11:02.883Z,100766.53
2023-03-02T02:14:06.894Z,100761.84
2023-03-02T02:17:11.092Z,100762.87
2023-03-02T02:20:16.480Z,100758.31
2023-03-02T02:23:40.929Z,100763.50
2023-03-02T02:26:53.097Z,100761.94
2023-03-02T02:29:58.273Z,100757.62
2023-03-02T02:33:03.877Z,100767.28
2023-03-02T02:36:14.616Z,100762.13
2023-03-02T02:39:35.100Z,100756.50
2023-03-02T02:42:43.993Z,100758.34
2023-03-02T02:45:54.030Z,100752.88
2023-03-02T02:48:57.190Z,100752.41
2023-03-02T02:52:00.221Z,100741.81
2023-03-02T02:55:03.715Z,100751.34
2023-03-02T02:58:34.309Z,100757.56
2023-03-02T03:01:37.677Z,100747.50
2023-03-02T03:04:40.775Z,100752.13
2023-03-02T03:07:43.891Z,100733.66
2023-03-02T03:10:47.955Z,100732.88
2023-03-02T03:13:57.250Z,100732.81
2023-03-02T03:17:00.951Z,100731.47
2023-03-02T03:20:10.696Z,100735.53
2023-03-02T03:23:14.746Z,100736.97
2023-03-02T03:26:20.577Z,100743.75
2023-03-02T03:29:26.250Z,100742.47
2023-03-02T03:32:35.439Z,100746.47
2023-03-02T03:35:40.039Z,100754.06
2023-03-02T03:38:44.388Z,100757.84
2023-03-02T03:41:47.998Z,100762.78
2023-03-02T03:44:51.243Z,100761.12
2023-03-02T03:47:54.582Z,100766.25
2023-03-02T03:51:00.182Z,100776.19
2023-03-02T03:54:08.085Z,100774.44
2023-03-02T03:57:12.203Z,100776.09
2023-03-02T04:00:19.533Z,100773.13
2023-03-02T04:03:24.027Z,100769.47
2023-03-02T04:06:27.088Z,100775.28
2023-03-02T04:09:32.287Z,100776.06
2023-03-02T04:12:37.972Z,100777.84
2023-03-02T04:15:42.315Z,100777.31
2023-03-02T04:18:45.133Z,100774.84
2023-03-02T04:21:52.583Z,100773.94
2023-03-02T04:24:55.488Z,100774.59
2023-03-02T04:27:59.111Z,100770.19
2023-03-02T04:31:02.594Z,100771.25
2023-03-02T04:34:06.799Z,100770.19
2023-03-02T04:37:10.504Z,100764.41
2023-03-02T04:40:14.234Z,100768.19
2023-03-02T04:43:16.808Z,100766.91
2023-03-02T04:46:23.808Z,100754.03
2023-03-02T04:49:26.428Z,100751.72
2023-03-02T04:52:31.393Z,100756.41
2023-03-02T04:55:33.625Z,100753.88
2023-03-02T04:58:36.572Z,100747.06
2023-03-02T05:01:39.364Z,100748.50
2023-03-02T05:04:42.472Z,100749.34
2023-03-02T05:07:45.192Z,100751.28
2023-03-02T05:10:47.862Z,100745.41
2023-03-02T05:13:51.810Z,100759.97
2023-03-02T05:16:54.841Z,100761.03
2023-03-02T05:19:57.438Z,100758.50
2023-03-02T05:23:02.636Z,100752.06
2023-03-02T05:26:05.438Z,100760.25
2023-03-02T05:29:08.554Z,100766.84
2023-03-02T05:32:12.566Z,100769.91
2023-03-02T05:35:16.472Z,100764.12
2023-03-02T05:38:19.101Z,100768.91
2023-03-02T05:41:21.834Z,100770.59
2023-03-02T05:44:24.039Z,100770.59
2023-03-02T05:47:26.513Z,100771.00
2023-03-02T05:50:29.135Z,100779.50
2023-03-02T05:53:31.742Z,100779.16
2023-03-02T05:56:34.214Z,100781.25
2023-03-02T05:59:37.602Z,100781.16
2023-03-02T06:02:40.454Z,100790.38
2023-03-02T06:05:43.827Z,100780.38
2023-03-02T06:08:46.169Z,100781.56
2023-03-02T06:11:49.221Z,100783.25
2023-03-02T06:14:51.691Z,100794.28
2023-03-02T06:17:54.370Z,100792.19
2023-03-02T06:20:56.768Z,100790.31
2023-03-02T06:23:59.430Z,100792.06
2023-03-02T06:27:02.104Z,100799.87
2023-03-02T06:30:06.234Z,100791.41
2023-03-02T06:33:08.738Z,100800.00
2023-03-02T06:36:12.700Z,100794.41
2023-03-02T06:39:17.826Z,100803.50
2023-03-02T06:42:20.348Z,100802.94
2023-03-02T06:45:22.508Z,100812.97
2023-03-02T06:48:25.533Z,100816.34
2023-03-02T06:51:28.684Z,100816.56
2023-03-02T06:54:32.446Z,100811.00
2023-03-02T06:57:34.885Z,100820.41
2023-03-02T07:00:37.336Z,100818.75
2023-03-02T07:03:39.551Z,100818.16
2023-03-02T07:06:42.283Z,100831.72
2023-03-02T07:09:44.836Z,100818.78
2023-03-02T07:12:47.325Z,100828.16
2023-03-02T07:15:49.466Z,100817.94
2023-03-02T07:18:53.258Z,100821.84
2023-03-02T07:21:55.496Z,100826.50
2023-03-02T07:24:58.359Z,100820.91
2023-03-02T07:28:00.696Z,100825.03
2023-03-02T07:31:03.840Z,100823.66
2023-03-02T07:34:06.397Z,100823.09
2023-03-02T07:37:09.074Z,100827.25
2023-03-02T07:40:12.571Z,100810.44
2023-03-02T07:43:15.608Z,100814.78
2023-03-02T07:46:17.899Z,100808.12
2023-03-02T07:49:20.602Z,100816.16
2023-03-02T07:52:22.842Z,100820.41
2023-03-02T07:55:26.529Z,100816.50
2023-03-02T07:58:29.190Z,100817.69
2023-03-02T08:01:32.457Z,100813.59
2023-03-02T08:04:36.005Z,100806.91
2023-03-02T08:07:38.755Z,100811.47
2023-03-02T08:10:42.464Z,100812.78
2023-03-02T08:13:46.164Z,100810.81
2023-03-02T08:16:52.322Z,100817.59
2023-03-02T08:19:54.991Z,100806.72
2023-03-02T08:22:57.933Z,100817.34
2023-03-02T08:26:00.334Z,100816.78
2023-03-02T08:29:03.922Z,100814.66
2023-03-02T08:32:07.984Z,100807.03
2023-03-02T08:35:10.947Z,100808.25
2023-03-02T08:38:13.476Z,100803.88
2023-03-02T08:41:20.035Z,100800.38
2023-03-02T08:44:22.944Z,100806.03
2023-03-02T08:47:25.870Z,100796.03
2023-03-02T08:50:28.599Z,100803.13
2023-03-02T08:53:34.656Z,100796.22
2023-03-02T08:56:39.517Z,100794.66
2023-03-02T08:59:42.343Z,100797.84
2023-03-02T09:02:44.981Z,100794.69
2023-03-02T09:05:48.529Z,100792.75
2023-03-02T09:08:51.387Z,100797.69
2023-03-02T09:11:54.559Z,100782.91
2023-03-02T09:14:57.127Z,100788.06
2023-03-02T09:18:00.005Z,100785.25
2023-03-02T09:21:03.302Z,100781.31
2023-03-02T09:24:06.249Z,100779.75
2023-03-02T09:27:09.014Z,100769.88
2023-03-02T09:30:12.871Z,100780.03
2023-03-02T09:33:15.445Z,100769.34
2023-03-02T09:36:23.514Z,100769.34
2023-03-02T09:39:26.395Z,100772.03
2023-03-02T09:42:47.384Z,100771.56
2023-03-02T09:46:20.567Z,100776.19
2023-03-02T09:49:41.905Z,100771.56
2023-03-02T09:53:07.061Z,100767.50
2023-03-02T09:56:15.889Z,100768.75
2023-03-02T09:59:21.709Z,100769.69
2023-03-02T10:02:32.990Z,100766.72
2023-03-02T10:05:40.828Z,100767.72
2023-03-02T10:08:43.480Z,100756.31
2023-03-02T10:12:08.356Z,100759.28
2023-03-02T10:15:29.280Z,100760.62
2023-03-02T10:18:49.297Z,100755.44
2023-03-02T10:22:03.228Z,100752.03
2023-03-02T10:25:15.877Z,100752.00
2023-03-02T10:28:25.705Z,100739.84
2023-03-02T10:31:31.583Z,100740.75
2023-03-02T10:34:37.710Z,100739.28
2023-03-02T10:37:40.523Z,100744.03
2023-03-02T10:40:45.653Z,100728.50
2023-03-02T10:43:52.856Z,100728.87
2023-03-02T10:46:55.303Z,100727.31
2023-03-02T10:49:58.327Z,100719.00
2023-03-02T10:53:04.169Z,100721.59
2023-03-02T10:56:22.058Z,100709.69
2023-03-02T10:59:43.571Z,100708.94
2023-03-02T11:02:58.220Z,100702.09
2023-03-02T11:06:17.774Z,100698.63
2023-03-02T11:09:20.595Z,100695.28
2023-03-02T11:12:23.405Z,100689.66
2023-03-02T11:15:37.179Z,100696.41
2023-03-02T11:18:48.640Z,100690.09
2023-03-02T11:22:00.365Z,100686.00
2023-03-02T11:25:08.344Z,100687.22
2023-03-02T11:28:41.905Z,100680.06
2023-03-02T11:31:50.493Z,100680.06
2023-03-02T11:35:14.781Z,100678.00
2023-03-02T11:38:30.072Z,100675.44
2023-03-02T11:41:34.721Z,100680.91
2023-03-02T11:44:38.066Z,100676.78
2023-03-02T11:48:04.920Z,100666.91
2023-03-02T11:51:14.887Z,100664.34
2023-03-02T11:54:41.212Z,100669.53
2023-03-02T11:57:55.478Z,100658.53
2023-03-02T12:01:00.025Z,100656.09
2023-03-02T12:04:10.438Z,100660.78
2023-03-02T12:07:22.932Z,100661.97
2023-03-02T12:11:04.829Z,100648.59
2023-03-02T12:14:37.267Z,100642.84
2023-03-02T12:17:39.842Z,100642.78
2023-03-02T12:20:43.097Z,100641.06
2023-03-02T12:23:48.842Z,100635.00
2023-03-02T12:27:02.750Z,100634.88
2023-03-02T12:30:24.564Z,100631.28
2023-03-02T12:33:27.201Z,100640.22
2023-03-02T12:36:35.659Z,100628.34
2023-03-02T12:39:48.356Z,100630.31
2023-03-02T12:43:16.140Z,100626.38
2023-03-02T12:46:29.433Z,100617.16
2023-03-02T12:49:46.879Z,100614.31
2023-03-02T12:53:01.062Z,100607.22
2023-03-02T12:56:03.864Z,100613.63
2023-03-02T12:59:06.599Z,100602.25
2023-03-02T13:02:20.297Z,100592.44
2023-03-02T13:05:42.396Z,100600.88
2023-03-02T13:08:48.706Z,100596.66
2023-03-02T13:11:54.733Z,100594.16
2023-03-02T13:14:59.090Z,100591.31
2023-03-02T13:18:01.560Z,100585.31
2023-03-02T13:21:04.959Z,100581.72
2023-03-02T13:24:29.062Z,100575.25
2023-03-02T13:27:33.981Z,100582.25
2023-03-02T13:30:47.783Z,100578.22
2023-03-02T13:33:53.149Z,100567.00
2023-03-02T13:36:55.794Z,100569.94
2023-03-02T13:40:04.279Z,100567.00
2023-03-02T13:43:24.723Z,100557.41
2023-03-02T13:46:36.846Z,100545.84
2023-03-02T13:49:39.609Z,100553.84
2023-03-02T13:52:42.144Z,100543.53
2023-03-02T13:55:44.476Z,100544.78
2023-03-02T13:58:47.474Z,100539.97
2023-03-02T14:01:50.387Z,100534.16
2023-03-02T14:04:53.950Z,100530.59
2023-03-02T14:07:56.697Z,100530.16
2023-03-02T14:11:01.205Z,100518.47
2023-03-02T14:14:06.423Z,100517.03
2023-03-02T14:17:21.352Z,100516.81
2023-03-02T14:20:23.997Z,100513.03
2023-03-02T14:23:28.268Z,100509.56
2023-03-02T14:26:36.577Z,100507.22
2023-03-02T14:29:43.152Z,100512.06
2023-03-02T14:32:45.731Z,100512.28
2023-03-02T14:35:50.874Z,100508.41
2023-03-02T14:38:56.099Z,100498.28
2023-03-02T14:41:58.990Z,100502.31
2023-03-02T14:45:02.051Z,100499.25
2023-03-02T14:48:05.201Z,100495.66
2023-03-02T14:51:24.422Z,100498.50
2023-03-02T14:54:31.881Z,100497.47
2023-03-02T14:57:38.469Z,100496.62
2023-03-02T15:00:43.114Z,100499.22
2023-03-02T15:03:46.153Z,100488.47
2023-03-02T15:06:49.717Z,100495.03
2023-03-02T15:09:52.044Z,100494.16
2023-03-02T15:12:55.097Z,100486.81
2023-03-02T15:15:57.544Z,100484.72
2023-03-02T15:19:00.132Z,100490.06
2023-03-02T15:22:04.472Z,100488.47
2023-03-02T15:25:07.593Z,100489.22
2023-03-02T15:28:10.400Z,100491.66
2023-03-02T15:31:16.186Z,100490.34
2023-03-02T15:34:18.632Z,100482.97
2023-03-02T15:37:21.375Z,100493.28
2023-03-02T15:40:24.408Z,100492.00
2023-03-02T15:43:27.154Z,100504.19
2023-03-02T15:46:30.223Z,100501.84
2023-03-02T15:49:33.036Z,100500.16
2023-03-02T15:52:35.674Z,100495.94
2023-03-02T15:55:40.807Z,100501.13
2023-03-02T15:58:49.776Z,100502.81
2023-03-02T16:01:53.502Z,100505.47
2023-03-02T16:04:56.441Z,100500.78
2023-03-02T16:07:58.804Z,100500.69
2023-03-02T16:11:05.096Z,100502.84
2023-03-02T16:14:07.463Z,100502.75
2023-03-02T16:17:10.124Z,100502.56
2023-03-02T16:20:12.757Z,100505.75
2023-03-02T16:23:16.096Z,100507.31
2023-03-02T16:26:20.740Z,100507.31
2023-03-02T16:29:24.280Z,100507.75
2023-03-02T16:32:27.606Z,100511.56
2023-03-02T16:35:32.888Z,100508.06
2023-03-02T16:38:36.849Z,100513.09
2023-03-02T16:41:42.068Z,100515.41
2023-03-02T16:44:45.918Z,100516.78
2023-03-02T16:47:48.956Z,100524.22
2023-03-02T16:50:56.752Z,100525.84
2023-03-02T16:53:59.712Z,100534.69
2023-03-02T16:57:02.078Z,100530.47
2023-03-02T17:00:07.188Z,100542.94
2023-03-02T17:03:09.567Z,100546.69
2023-03-02T17:06:15.192Z,100546.94
2023-03-02T17:09:17.449Z,100555.94
2023-03-02T17:12:20.102Z,100553.38
2023-03-02T17:15:22.637Z,100560.50
2023-03-02T17:18:27.553Z,100563.59
2023-03-02T17:21:29.844Z,100562.37
2023-03-02T17:24:33.544Z,100565.87
2023-03-02T17:27:35.694Z,100563.63
2023-03-02T17:30:39.707Z,100558.66
2023-03-02T17:33:42.031Z,100565.34
2023-03-02T17:36:44.636Z,100558.87
2023-03-02T17:39:50.870Z,100564.41
2023-03-02T17:42:56.142Z,100564.88
2023-03-02T17:46:21.245Z,100567.72
2023-03-02T17:49:24.081Z,100565.63
2023-03-02T17:52:26.270Z,100569.22
2023-03-02T17:55:29.263Z,100567.62
2023-03-02T17:58:44.313Z,100578.44
2023-03-02T18:01:47.826Z,100570.19
2023-03-02T18:04:50.392Z,100574.72
2023-03-02T18:07:54.535Z,100573.75
2023-03-02T18:10:57.400Z,100579.41
2023-03-02T18:13:59.672Z,100573.88
2023-03-02T18:17:04.957Z,100578.69
2023-03-02T18:20:08.487Z,100577.66
2023-03-02T18:23:12.470Z,100575.47
2023-03-02T18:26:15.406Z,100569.34
2023-03-02T18:29:17.970Z,100572.00
2023-03-02T18:32:20.543Z,100569.75
2023-03-02T18:35:23.847Z,100571.94
2023-03-02T18:38:30.740Z,100570.31
2023-03-02T18:41:33.921Z,100573.53
2023-03-02T18:44:36.603Z,100570.66
2023-03-02T18:47:39.128Z,100573.41
2023-03-02T18:50:41.429Z,100571.72
2023-03-02T18:53:45.189Z,100573.63
2023-03-02T18:56:48.126Z,100577.78
2023-03-02T18:59:50.763Z,100574.53
2023-03-02T19:02:53.031Z,100575.94
2023-03-02T19:05:57.937Z,100575.56
2023-03-02T19:09:00.887Z,100580.72
2023-03-02T19:12:04.604Z,100576.31
2023-03-02T19:15:10.338Z,100578.16
2023-03-02T19:18:22.378Z,100576.25
2023-03-02T19:21:24.708Z,100581.19
2023-03-02T19:24:27.332Z,100579.09
2023-03-02T19:27:29.649Z,100574.34
2023-03-02T19:30:34.049Z,100578.34
2023-03-02T19:33:36.627Z,100577.69
2023-03-02T19:36:39.751Z,100578.34
2023-03-02T19:39:42.011Z,100585.91
2023-03-02T19:42:45.490Z,100577.09
2023-03-02T19:45:47.776Z,100583.94
2023-03-02T19:48:50.642Z,100585.25
2023-03-02T19:51:52.960Z,100588.03
2023-03-02T19:54:56.153Z,100593.94
2023-03-02T19:58:02.184Z,100592.44
2023-03-02T20:01:05.184Z,100584.62
2023-03-02T20:04:08.355Z,100591.31
2023-03-02T20:07:11.023Z,100585.19
2023-03-02T20:10:42.120Z,100594.09
2023-03-02T20:13:44.821Z,100589.91
2023-03-02T20:16:47.740Z,100588.97
2023-03-02T20:19:50.282Z,100586.59
2023-03-02T20:22:53.545Z,100594.41
2023-03-02T20:25:55.832Z,100598.47
2023-03-02T20:29:00.818Z,100598.19
2023-03-02T20:32:05.944Z,100601.69
2023-03-02T20:35:09.657Z,100600.91
2023-03-02T20:38:34.081Z,100608.53
2023-03-02T20:41:37.149Z,100605.06
2023-03-02T20:44:39.681Z,100605.28
2023-03-02T20:47:45.424Z,100603.56
2023-03-02T20:50:49.521Z,100601.88
2023-03-02T20:53:53.172Z,100605.78
2023-03-02T20:56:55.860Z,100606.22
2023-03-02T20:59:58.517Z,100599.50
2023-03-02T21:03:00.921Z,100599.09
2023-03-02T21:06:03.862Z,100599.19
2023-03-02T21:09:08.466Z,100591.38
2023-03-02T21:12:11.938Z,100594.19
2023-03-02T21:15:15.533Z,100592.47
2023-03-02T21:18:18.283Z,100584.91
2023-03-02T21:21:32.494Z,100583.25
2023-03-02T21:24:42.414Z,100583.13
2023-03-02T21:27:45.103Z,100569.59
2023-03-02T21:30:48.403Z,100570.09
2023-03-02T21:33:50.826Z,100567.91
2023-03-02T21:36:53.771Z,100579.34
2023-03-02T21:39:56.094Z,100567.25
2023-03-02T21:42:59.187Z,100569.44
2023-03-02T21:46:01.577Z,100571.78
2023-03-02T21:49:04.756Z,100564.88
2023-03-02T21:52:08.019Z,100571.59
2023-03-02T21:55:13.182Z,100567.28
2023-03-02T21:58:16.914Z,100561.75
2023-03-02T22:01:20.836Z,100566.22
2023-03-02T22:04:23.695Z,100572.53
2023-03-02T22:07:26.258Z,100568.53
2023-03-02T22:10:43.892Z,100571.81
2023-03-02T22:13:47.941Z,100567.69
2023-03-02T22:16:52.092Z,100559.97
2023-03-02T22:19:54.744Z,100563.50
2023-03-02T22:22:58.659Z,100564.31
2023-03-02T22:26:12.962Z,100560.56
2023-03-02T22:29:28.200Z,100557.84
2023-03-02T22:32:36.953Z,100556.00
2023-03-02T22:35:39.826Z,100552.78
2023-03-02T22:38:42.368Z,100556.84
2023-03-02T22:41:44.949Z,100552.13
2023-03-02T22:45:14.741Z,100555.16
2023-03-02T22:48:20.520Z,100553.72
2023-03-02T22:51:27.925Z,100550.38
2023-03-02T22:54:37.458Z,100551.16
2023-03-02T22:57:42.432Z,100546.53
2023-03-02T23:00:45.905Z,100550.94
2023-03-02T23:03:51.760Z,100544.63
2023-03-02T23:07:00.585Z,100550.75
2023-03-02T23:10:03.647Z,100544.97
2023-03-02T23:13:09.320Z,100537.59
2023-03-02T23:16:17.530Z,100546.69
2023-03-02T23:19:20.714Z,100538.41
2023-03-02T23:22:23.402Z,100535.09
2023-03-02T23:25:25.958Z,100541.94
2023-03-02T23:28:28.114Z,100535.69
2023-03-02T23:31:31.369Z,100535.59
2023-03-02T23:34:33.763Z,100533.13
2023-03-02T23:37:36.897Z,100539.78
2023-03-02T23:40:41.564Z,100529.31
2023-03-02T23:43:44.580Z,100524.72
2023-03-02T23:46:47.852Z,100524.41
2023-03-02T23:49:50.494Z,100522.72
2023-03-02T23:52:52.912Z,100521.09
2023-03-02T23:55:55.984Z,100519.44
2023-03-02T23:58:58.614Z,100522.84
